KCDI

Cambridge Municipal Airport

Cambridge, Ohio, USA
METAR KCDI 200655Z AUTO 20004KT 10SM CLR 16/11 A3014 RMK AO2 T01570110
Observed Flight Rules
Feb-20 @ 06:55 UTC (29 minutes ago) Visual Flight Rules
Wind Visibility Clouds
200° at 4 knots 10 miles
  • Clear skies
Temperatures Readings
Current 16°C / 61°F
Dewpoint 11°C / 52°F
Humidity 72%
Altimeter 30.14" Hg
Pressure 1021 hPa
Elevation 244
METAR KCDI 200655Z AUTO 20004KT 10SM CLR 16/11 A3014 RMK AO2 T01570110
Observed Flight Rules
Feb-20 @ 06:55 UTC
(29 minutes ago)
VFR
Wind Visibility
200° at 4 knots 10 miles
Clouds
  • Clear skies
Temperature Dewpoint
16°C / 61°F 11°C / 52°F
Humidity Altimeter Pressure
72% 30.14" Hg 1021 hPa